Pagina principală
METAR-TAF:

METAR-TAF

Aeroporturi :

Princeton, Columbia Britanică, Canada

Latitudine: 49-28N, longitudine: 120-31W, elevație: 700 m

Observații meteo curente

Raportul a fost făcut în urmă cu 57 de minute, la 21:00 UTC
Vânt 5 kt de la Sud-vest, variabil între Sud și Vest
Temperatură 26°C
Umiditate 18%
Presiune 1010 hPa
Vizibilitate: 40.2 km
Nori puțini la o înălțime de 9300 picior
Nori fragmentați la o înălțime de 10000 picior
Total acoperit la o înălțime de 11000 picior

METAR: CYDC 222100Z 22005KT 190V260 25SM FEW093 BKN100 OVC110 26/00 A2983 RMK AC1AC5AC2 SLP088 DENSITY ALT 4200FT

Ora: 14:57 (21:57 UTC)


TAF: lipsă

Observații și prognoze meteo pentru peste 4.000 de aeroporturi (rapoarte METAR și TAF).

Stațiile disponibile sunt reprezentate pe hartă prin puncte galbene și roșii.

Țineți indicatorul mouse-ului pe punctul dorit pentru a vedea denumirea stației.

Apoi, faceți clic pentru a vedea observațiile și prognozele meteorologice.

Pentru a schimba harta: Pentru mărire, faceți clic pe butoanele verzi cu cruce neagră; pentru micșorare, pe butonul verde cu o liniuță; pentru hărți învecinate, pe săgețile verzi.


METAR-TAF: